Time;durP1;ratioP1;P1;durP2;ratioP2;P2;SDS_P1;SDS_P2;PMS_P1;PMS_P2;Temp;Humidity;BMP_temperature;BMP_pressure;BME280_temperature;BME280_humidity;BME280_pressure;Samples;Min_cycle;Max_cycle;Signal;HPM_P1;HPM_P2
2022/07/31 00:00:10;;;;;;;7.50;6.17;;;22.60;92.50;;;;;;4917010;29;20509;-72
2022/07/31 00:02:36;;;;;;;6.50;6.10;;;22.60;92.20;;;;;;4916189;29;20237;-73
2022/07/31 00:05:03;;;;;;;6.77;6.37;;;22.60;92.10;;;;;;4915448;29;21070;-72
2022/07/31 00:07:29;;;;;;;7.00;6.50;;;22.60;92.30;;;;;;4915304;29;20442;-76
2022/07/31 00:09:55;;;;;;;7.77;7.17;;;22.60;91.90;;;;;;4915121;29;20435;-71
2022/07/31 00:12:21;;;;;;;6.70;6.20;;;22.60;91.80;;;;;;4916655;29;20710;-74
2022/07/31 00:14:48;;;;;;;6.47;6.10;;;22.60;91.90;;;;;;4915090;29;20190;-71
2022/07/31 00:17:14;;;;;;;6.63;6.23;;;22.50;92.10;;;;;;4915014;29;20419;-73
2022/07/31 00:19:40;;;;;;;6.70;6.20;;;22.50;92.70;;;;;;4929293;29;20430;-72
2022/07/31 00:22:06;;;;;;;6.87;6.37;;;22.50;92.60;;;;;;4915778;29;20229;-72
2022/07/31 00:24:32;;;;;;;7.20;6.60;;;22.50;92.80;;;;;;4915880;29;20472;-76
2022/07/31 00:26:58;;;;;;;7.07;6.67;;;22.50;93.10;;;;;;4916585;29;20407;-72
2022/07/31 00:29:24;;;;;;;7.43;6.73;;;22.40;93.70;;;;;;4915761;29;20502;-72
2022/07/31 00:31:50;;;;;;;7.70;6.47;;;22.50;93.80;;;;;;4915660;29;20418;-72
2022/07/31 00:34:16;;;;;;;7.07;6.57;;;22.40;93.80;;;;;;4915228;29;20427;-72
2022/07/31 00:36:42;;;;;;;6.67;6.17;;;22.40;93.30;;;;;;4915588;29;20182;-72
2022/07/31 00:39:09;;;;;;;6.97;6.47;;;22.30;93.50;;;;;;4915958;29;20225;-72
2022/07/31 00:41:39;;;;;;;6.97;6.43;;;22.30;93.10;;;;;;4915595;29;20552;-72
2022/07/31 00:44:05;;;;;;;6.63;6.23;;;22.30;93.90;;;;;;4916321;29;20474;-72
2022/07/31 00:46:31;;;;;;;7.83;7.23;;;22.30;94.30;;;;;;4915761;29;20941;-75
2022/07/31 00:48:57;;;;;;;6.40;6.10;;;22.30;94.40;;;;;;4915111;29;20196;-72
2022/07/31 00:51:22;;;;;;;7.27;6.67;;;22.20;94.30;;;;;;4916195;29;20615;-72
2022/07/31 00:53:48;;;;;;;7.60;7.10;;;22.20;94.40;;;;;;4915435;29;20269;-72
2022/07/31 00:56:14;;;;;;;6.80;6.40;;;22.20;94.60;;;;;;4916050;29;20178;-72
2022/07/31 00:58:39;;;;;;;7.17;6.67;;;22.20;94.30;;;;;;4914295;29;20193;-73
2022/07/31 01:01:05;;;;;;;7.83;7.40;;;22.10;94.30;;;;;;4915902;29;20194;-72
2022/07/31 01:03:31;;;;;;;7.90;7.10;;;22.10;94.90;;;;;;4914751;29;20301;-74
2022/07/31 01:05:57;;;;;;;7.63;7.13;;;22.10;94.90;;;;;;4915481;29;20422;-72
2022/07/31 01:08:22;;;;;;;9.80;7.40;;;22.10;95.20;;;;;;4916277;29;20182;-72
2022/07/31 01:10:54;;;;;;;8.23;7.63;;;22.00;95.20;;;;;;4914649;29;20736;-72
2022/07/31 01:13:54;;;;;;;7.90;7.40;;;22.00;95.20;;;;;;4915869;29;20587;-72
2022/07/31 01:16:24;;;;;;;8.13;7.57;;;21.90;95.30;;;;;;4914523;29;20462;-72
2022/07/31 01:18:54;;;;;;;7.70;7.10;;;21.90;95.10;;;;;;4914398;29;20438;-72
2022/07/31 01:21:34;;;;;;;7.13;6.73;;;21.80;95.20;;;;;;4913742;29;20514;-72
2022/07/31 01:23:59;;;;;;;8.10;7.30;;;21.80;95.40;;;;;;4915140;29;20525;-72
2022/07/31 01:26:34;;;;;;;7.97;7.47;;;21.80;95.50;;;;;;4915889;29;20443;-72
2022/07/31 01:29:23;;;;;;;7.93;7.43;;;21.80;95.90;;;;;;4915311;29;20162;-72
2022/07/31 01:32:21;;;;;;;7.47;6.87;;;21.70;96.20;;;;;;4915073;29;20502;-72
2022/07/31 01:34:51;;;;;;;7.90;7.40;;;21.70;96.60;;;;;;4912869;29;20430;-72
2022/07/31 01:37:21;;;;;;;8.60;8.00;;;21.60;96.70;;;;;;4915788;29;20848;-72
2022/07/31 01:39:59;;;;;;;8.33;7.60;;;21.50;96.80;;;;;;4915006;29;20399;-72
2022/07/31 01:42:27;;;;;;;7.40;7.00;;;21.50;96.80;;;;;;4915453;29;20486;-72
2022/07/31 01:44:59;;;;;;;8.40;7.90;;;21.40;97.10;;;;;;4915007;29;20466;-72
2022/07/31 01:47:26;;;;;;;7.40;6.90;;;21.40;97.20;;;;;;4914215;29;20442;-72
2022/07/31 01:49:54;;;;;;;7.60;7.10;;;21.40;97.50;;;;;;4916710;29;20763;-72
2022/07/31 01:52:23;;;;;;;8.20;7.53;;;21.30;97.40;;;;;;4918236;29;20430;-72
2022/07/31 01:54:50;;;;;;;7.93;7.43;;;21.30;97.50;;;;;;4918398;29;20433;-72
2022/07/31 01:57:17;;;;;;;8.23;7.53;;;21.30;97.40;;;;;;4919169;29;20415;-72
2022/07/31 01:59:44;;;;;;;8.53;7.80;;;21.30;97.60;;;;;;4918431;29;20858;-72
2022/07/31 02:02:11;;;;;;;7.93;7.40;;;21.30;97.50;;;;;;4918606;29;20757;-72
2022/07/31 02:04:38;;;;;;;8.33;7.67;;;21.20;97.50;;;;;;4917765;29;20981;-75
2022/07/31 02:07:06;;;;;;;7.77;7.27;;;21.20;97.50;;;;;;4918347;29;20446;-72
2022/07/31 02:09:33;;;;;;;8.43;7.73;;;21.20;97.60;;;;;;4918951;29;20430;-72
2022/07/31 02:12:01;;;;;;;7.50;6.97;;;21.20;98.00;;;;;;4917689;29;20430;-72
2022/07/31 02:14:28;;;;;;;8.27;7.70;;;21.20;97.80;;;;;;4917535;29;20434;-72
2022/07/31 02:16:54;;;;;;;7.53;6.93;;;21.20;98.00;;;;;;4917858;29;20597;-72
2022/07/31 02:19:21;;;;;;;7.80;7.10;;;21.10;98.00;;;;;;4917494;29;20450;-72
2022/07/31 02:21:46;;;;;;;8.70;8.00;;;21.10;98.40;;;;;;4916829;29;20497;-72
2022/07/31 02:24:12;;;;;;;7.37;6.87;;;21.10;98.50;;;;;;4918665;29;20601;-72
2022/07/31 02:26:39;;;;;;;7.67;7.20;;;21.10;98.60;;;;;;4917582;29;20194;-76
2022/07/31 02:29:07;;;;;;;7.37;6.87;;;21.10;98.60;;;;;;4918212;29;20213;-72
2022/07/31 02:31:34;;;;;;;7.10;6.70;;;21.10;98.50;;;;;;4899287;29;20439;-72
2022/07/31 02:34:00;;;;;;;8.07;7.47;;;21.10;98.60;;;;;;4913590;29;21302;-72
2022/07/31 02:36:28;;;;;;;7.53;7.00;;;21.00;98.60;;;;;;4917061;29;20526;-72
2022/07/31 02:38:57;;;;;;;7.70;7.27;;;21.00;98.70;;;;;;4916563;29;20945;-72
2022/07/31 02:41:23;;;;;;;8.00;7.50;;;21.00;98.60;;;;;;4918161;29;20449;-72
2022/07/31 02:43:50;;;;;;;8.07;7.50;;;21.00;98.40;;;;;;4916216;29;20525;-72
2022/07/31 02:46:17;;;;;;;7.90;7.40;;;21.00;98.60;;;;;;4918192;29;20962;-72
2022/07/31 02:48:43;;;;;;;8.17;7.57;;;21.00;98.40;;;;;;4917471;29;20411;-73
2022/07/31 02:51:09;;;;;;;8.03;7.20;;;21.00;98.50;;;;;;4932353;29;20435;-72
2022/07/31 02:53:36;;;;;;;7.80;7.20;;;21.00;98.40;;;;;;4917896;29;20466;-72
2022/07/31 02:56:05;;;;;;;7.97;7.47;;;21.00;98.50;;;;;;4917498;29;20895;-72
2022/07/31 02:58:31;;;;;;;8.10;7.60;;;21.00;98.40;;;;;;4918112;29;20422;-72
2022/07/31 03:01:04;;;;;;;8.10;7.60;;;21.00;98.40;;;;;;4915324;29;20969;-72
2022/07/31 03:03:30;;;;;;;7.80;7.30;;;21.00;98.50;;;;;;4918054;29;20201;-72
2022/07/31 03:05:56;;;;;;;8.57;8.07;;;21.00;98.50;;;;;;4915740;29;20422;-72
2022/07/31 03:08:22;;;;;;;8.03;7.43;;;21.00;98.30;;;;;;4917914;29;20775;-72
2022/07/31 03:10:48;;;;;;;8.70;8.00;;;21.00;98.20;;;;;;4916422;29;20438;-73
2022/07/31 03:13:15;;;;;;;8.00;7.50;;;21.00;98.10;;;;;;4917701;29;20429;-72
2022/07/31 03:15:42;;;;;;;8.27;7.67;;;21.00;97.80;;;;;;4917236;29;20560;-76
2022/07/31 03:18:13;;;;;;;7.63;7.13;;;20.90;97.60;;;;;;4917029;29;20521;-72
2022/07/31 03:20:41;;;;;;;7.90;7.50;;;20.90;97.80;;;;;;4917464;29;20480;-74
2022/07/31 03:23:10;;;;;;;8.10;7.50;;;20.90;97.80;;;;;;4917324;29;20422;-73
2022/07/31 03:25:36;;;;;;;9.57;7.30;;;20.90;97.90;;;;;;4916912;29;20415;-73
2022/07/31 03:28:02;;;;;;;8.23;7.73;;;20.90;98.30;;;;;;4916866;29;21108;-72
2022/07/31 03:30:27;;;;;;;8.23;7.73;;;20.90;98.70;;;;;;4917512;29;20182;-74
2022/07/31 03:32:55;;;;;;;7.97;7.33;;;20.90;98.40;;;;;;4915457;29;20182;-72
2022/07/31 03:35:22;;;;;;;7.80;7.30;;;20.80;98.80;;;;;;4916890;29;20497;-73
2022/07/31 03:37:48;;;;;;;9.07;8.20;;;20.80;98.70;;;;;;4914415;29;20435;-73
2022/07/31 03:40:14;;;;;;;7.33;6.80;;;20.80;98.60;;;;;;4917491;29;20418;-72
2022/07/31 03:42:41;;;;;;;8.17;7.57;;;20.80;98.70;;;;;;4917347;29;20561;-72
2022/07/31 03:45:08;;;;;;;7.80;7.37;;;20.80;98.90;;;;;;4916456;29;20237;-72
2022/07/31 03:47:34;;;;;;;8.80;8.00;;;20.80;98.90;;;;;;4914787;29;20438;-72
2022/07/31 03:50:01;;;;;;;7.20;6.80;;;20.70;99.00;;;;;;4930838;29;20978;-73
2022/07/31 03:52:27;;;;;;;8.20;7.70;;;20.80;99.20;;;;;;4917092;29;20414;-72
2022/07/31 03:54:53;;;;;;;8.37;7.87;;;20.80;99.50;;;;;;4916300;29;20453;-72
2022/07/31 03:57:20;;;;;;;8.00;7.40;;;20.80;99.70;;;;;;4916473;29;20431;-72
2022/07/31 03:59:47;;;;;;;7.83;7.30;;;20.80;99.20;;;;;;4916431;29;20429;-73
2022/07/31 04:02:13;;;;;;;7.20;6.70;;;20.80;99.40;;;;;;4917001;29;20407;-72
2022/07/31 04:04:39;;;;;;;7.30;6.77;;;20.70;99.20;;;;;;4931513;29;20825;-72
2022/07/31 04:07:05;;;;;;;7.60;7.20;;;20.70;99.00;;;;;;4914613;29;20430;-72
2022/07/31 04:09:31;;;;;;;7.63;7.13;;;20.80;99.20;;;;;;4917102;29;20183;-72
2022/07/31 04:11:57;;;;;;;7.53;6.93;;;20.70;99.20;;;;;;4915701;29;20767;-72
2022/07/31 04:14:22;;;;;;;7.33;6.83;;;20.70;99.20;;;;;;4916873;29;20423;-72
2022/07/31 04:16:48;;;;;;;7.23;6.80;;;20.80;99.10;;;;;;4915509;29;20277;-70
2022/07/31 04:19:14;;;;;;;7.60;7.07;;;20.80;99.10;;;;;;4916669;29;20186;-70
2022/07/31 04:21:40;;;;;;;7.47;6.97;;;20.80;99.50;;;;;;4916335;29;20229;-71
2022/07/31 04:24:06;;;;;;;7.20;6.80;;;20.80;99.90;;;;;;4915502;29;20485;-70
2022/07/31 04:26:32;;;;;;;7.97;7.47;;;20.80;99.50;;;;;;4915968;29;20187;-70
2022/07/31 04:28:57;;;;;;;7.57;6.97;;;20.80;99.90;;;;;;4914332;29;20435;-71
2022/07/31 04:31:23;;;;;;;7.80;7.20;;;20.80;99.60;;;;;;4911898;29;20191;-70
2022/07/31 04:33:49;;;;;;;7.67;7.17;;;20.90;99.90;;;;;;4924897;29;20200;-71
2022/07/31 04:36:16;;;;;;;8.33;7.73;;;20.90;99.80;;;;;;4915252;29;20194;-71
2022/07/31 04:38:42;;;;;;;8.70;8.07;;;20.90;99.90;;;;;;4915972;29;20636;-71
2022/07/31 04:41:08;;;;;;;8.90;8.30;;;20.90;99.90;;;;;;4924585;29;20518;-70
2022/07/31 04:43:33;;;;;;;9.07;8.40;;;21.00;99.90;;;;;;4915808;29;20485;-71
2022/07/31 04:45:59;;;;;;;8.70;8.00;;;21.00;99.90;;;;;;4914903;29;20595;-70
2022/07/31 04:48:25;;;;;;;9.20;8.30;;;21.00;99.90;;;;;;4916249;29;20178;-70
2022/07/31 04:50:50;;;;;;;8.90;8.20;;;21.00;99.90;;;;;;4915497;29;20189;-71
2022/07/31 04:53:16;;;;;;;11.20;8.90;;;21.10;99.90;;;;;;4916237;29;20182;-70
2022/07/31 04:56:31;;;;;;;9.03;8.30;;;21.10;99.90;;;;;;4914279;29;20235;-71
2022/07/31 04:58:27;;;;;;;9.60;8.70;;;21.10;99.90;;;;;;4901618;29;20544;-70
2022/07/31 05:00:53;;;;;;;9.50;8.90;;;21.20;99.70;;;;;;4914811;29;20438;-71
2022/07/31 05:03:19;;;;;;;8.47;7.80;;;21.20;99.70;;;;;;4915914;29;20197;-70
2022/07/31 05:05:45;;;;;;;8.33;7.80;;;21.30;99.90;;;;;;4915585;29;20663;-70
2022/07/31 05:08:11;;;;;;;8.50;7.90;;;21.30;99.40;;;;;;4915548;29;20183;-71
2022/07/31 05:13:20;;;;;;;12.80;8.23;;;21.30;99.60;;;;;;4916114;29;20186;-70
2022/07/31 05:15:46;;;;;;;8.07;7.47;;;21.40;99.90;;;;;;4915568;29;20470;-73
2022/07/31 05:18:12;;;;;;;8.13;7.63;;;21.40;99.90;;;;;;4915115;29;20186;-70
2022/07/31 05:20:37;;;;;;;9.40;8.60;;;21.40;99.70;;;;;;4916020;29;20213;-70
2022/07/31 05:23:03;;;;;;;9.13;8.40;;;21.40;99.60;;;;;;4915446;29;20184;-70
2022/07/31 05:25:29;;;;;;;8.80;8.20;;;21.40;99.90;;;;;;4918779;29;20225;-70
2022/07/31 05:27:54;;;;;;;9.50;8.70;;;21.40;99.60;;;;;;4919082;29;20186;-70
2022/07/31 05:30:20;;;;;;;9.10;8.50;;;21.50;99.40;;;;;;4918749;29;20208;-70
2022/07/31 05:32:46;;;;;;;8.73;8.07;;;21.50;99.00;;;;;;4909173;29;20286;-70
2022/07/31 05:35:11;;;;;;;8.97;8.37;;;21.50;98.90;;;;;;4909361;29;20197;-70
2022/07/31 05:37:37;;;;;;;8.43;7.83;;;21.50;99.50;;;;;;4919577;29;20206;-70
2022/07/31 05:40:03;;;;;;;8.40;7.80;;;21.60;99.70;;;;;;4918536;29;20559;-70
2022/07/31 05:42:29;;;;;;;8.23;7.70;;;21.60;99.90;;;;;;4917972;29;20657;-70
2022/07/31 05:44:54;;;;;;;8.30;7.80;;;21.60;99.90;;;;;;4910153;29;20478;-70
2022/07/31 05:47:20;;;;;;;7.43;7.03;;;21.60;99.90;;;;;;4919198;29;20182;-70
2022/07/31 05:49:46;;;;;;;7.70;7.20;;;21.70;99.90;;;;;;4919173;29;20183;-70
2022/07/31 05:52:11;;;;;;;8.43;7.93;;;21.70;99.90;;;;;;4917530;29;20186;-70
2022/07/31 05:54:37;;;;;;;8.10;7.50;;;21.70;99.90;;;;;;4919415;29;20661;-70
2022/07/31 05:57:03;;;;;;;8.97;8.37;;;21.70;99.90;;;;;;4917404;29;20261;-70
2022/07/31 05:59:28;;;;;;;9.03;8.33;;;21.70;99.90;;;;;;4918945;29;20194;-70
2022/07/31 06:01:54;;;;;;;8.70;8.10;;;21.70;99.90;;;;;;4895527;29;20256;-70
2022/07/31 06:04:20;;;;;;;8.17;7.57;;;21.80;99.90;;;;;;4905955;29;20222;-71
2022/07/31 06:06:45;;;;;;;6.33;6.03;;;21.80;99.90;;;;;;4919323;29;20631;-70
2022/07/31 06:09:11;;;;;;;6.77;6.37;;;21.80;99.90;;;;;;4918568;29;20239;-71
2022/07/31 06:11:37;;;;;;;7.23;6.73;;;21.90;99.90;;;;;;4918788;29;20182;-71
2022/07/31 06:14:03;;;;;;;8.47;7.83;;;22.00;99.90;;;;;;4917961;29;20191;-72
2022/07/31 06:16:29;;;;;;;8.27;7.60;;;22.10;99.50;;;;;;4916469;29;20241;-72
2022/07/31 06:18:54;;;;;;;9.07;8.37;;;22.20;99.20;;;;;;4914331;29;20906;-73
2022/07/31 06:21:21;;;;;;;7.93;7.30;;;22.30;99.00;;;;;;4918388;29;20187;-72
2022/07/31 06:23:46;;;;;;;10.23;9.23;;;22.40;98.40;;;;;;4918215;29;20218;-72
2022/07/31 06:26:12;;;;;;;6.80;6.40;;;22.50;98.20;;;;;;4916303;29;20615;-72
2022/07/31 06:28:38;;;;;;;6.90;6.43;;;22.50;97.30;;;;;;4917362;29;20242;-72
2022/07/31 06:31:03;;;;;;;7.10;6.40;;;22.60;96.70;;;;;;4915452;29;20178;-73
2022/07/31 06:33:29;;;;;;;6.27;5.87;;;22.70;96.50;;;;;;4918286;29;20233;-72
2022/07/31 06:35:55;;;;;;;6.20;5.70;;;22.70;95.70;;;;;;4914629;29;20182;-73
2022/07/31 06:38:23;;;;;;;6.33;5.93;;;22.70;95.50;;;;;;4917290;29;20190;-72
2022/07/31 06:40:50;;;;;;;6.00;5.60;;;22.70;94.30;;;;;;4932193;29;20190;-72
2022/07/31 06:43:16;;;;;;;8.10;5.77;;;22.80;95.40;;;;;;4917206;29;20427;-72
2022/07/31 06:45:41;;;;;;;6.10;5.70;;;22.80;95.40;;;;;;4917822;29;20425;-72
2022/07/31 06:48:12;;;;;;;11.93;10.93;;;22.80;94.30;;;;;;4917110;29;20411;-73
2022/07/31 06:50:37;;;;;;;12.60;10.10;;;22.90;94.00;;;;;;4883264;29;20195;-73
2022/07/31 06:53:03;;;;;;;7.23;6.73;;;22.90;94.70;;;;;;4917154;29;20422;-73
2022/07/31 06:55:29;;;;;;;6.10;5.70;;;22.90;94.40;;;;;;4915739;29;20218;-73
2022/07/31 06:57:54;;;;;;;6.27;5.90;;;23.00;94.50;;;;;;4912880;29;20708;-73
2022/07/31 07:00:20;;;;;;;11.10;8.87;;;23.00;94.40;;;;;;4918418;29;20178;-72
2022/07/31 07:02:46;;;;;;;6.10;5.70;;;23.00;93.90;;;;;;4917755;29;20175;-73
2022/07/31 07:05:11;;;;;;;6.37;5.97;;;22.90;93.50;;;;;;4917213;29;20202;-72
2022/07/31 07:07:37;;;;;;;5.73;5.37;;;22.90;94.30;;;;;;4916505;29;20186;-72
2022/07/31 07:10:04;;;;;;;6.23;5.77;;;23.00;94.00;;;;;;4917149;29;20178;-73
2022/07/31 07:12:30;;;;;;;5.40;5.10;;;23.00;94.10;;;;;;4917977;29;20174;-72
2022/07/31 07:14:56;;;;;;;5.60;5.20;;;23.00;94.40;;;;;;4916388;29;20457;-73
2022/07/31 07:17:22;;;;;;;6.33;6.03;;;23.00;94.10;;;;;;4917759;29;20175;-72
2022/07/31 07:19:48;;;;;;;6.73;6.13;;;23.10;94.70;;;;;;4917749;29;20772;-73
2022/07/31 07:22:14;;;;;;;6.10;5.77;;;23.20;95.10;;;;;;4917072;29;20190;-72
2022/07/31 07:24:39;;;;;;;5.77;5.37;;;23.20;94.60;;;;;;4912108;29;20282;-73
2022/07/31 07:27:05;;;;;;;6.13;5.80;;;23.30;94.30;;;;;;4916717;29;20262;-73
2022/07/31 07:29:31;;;;;;;6.03;5.60;;;23.30;93.60;;;;;;4917315;29;20631;-73
2022/07/31 07:31:58;;;;;;;12.40;6.37;;;23.30;94.10;;;;;;4916601;29;20174;-74
2022/07/31 07:34:24;;;;;;;61.63;49.07;;;23.30;94.40;;;;;;4931806;29;20642;-73
2022/07/31 07:36:50;;;;;;;87.43;70.60;;;23.30;94.50;;;;;;4916507;29;20506;-73
2022/07/31 07:39:16;;;;;;;7.97;7.27;;;23.40;94.30;;;;;;4916025;29;20505;-73
2022/07/31 07:41:42;;;;;;;6.73;6.03;;;23.30;93.80;;;;;;4914161;29;20193;-73
2022/07/31 07:44:08;;;;;;;7.00;6.30;;;23.40;94.10;;;;;;4916375;29;20462;-73
2022/07/31 07:46:34;;;;;;;6.60;6.20;;;23.40;93.80;;;;;;4916080;29;20191;-73
2022/07/31 07:49:01;;;;;;;7.50;6.80;;;23.40;94.40;;;;;;4916079;29;20852;-73
2022/07/31 07:51:27;;;;;;;7.70;7.10;;;23.50;94.50;;;;;;4915876;29;20425;-73
2022/07/31 07:53:52;;;;;;;8.57;7.87;;;23.60;94.80;;;;;;4915349;29;20503;-73
2022/07/31 07:56:18;;;;;;;6.30;5.80;;;23.60;94.40;;;;;;4916157;29;20171;-73
2022/07/31 07:58:44;;;;;;;6.90;6.50;;;23.60;94.00;;;;;;4897320;29;20571;-73
2022/07/31 08:01:10;;;;;;;6.13;5.73;;;23.60;93.70;;;;;;4916084;29;20205;-73
2022/07/31 08:03:35;;;;;;;5.97;5.50;;;23.50;93.70;;;;;;4931046;29;20241;-73
2022/07/31 08:06:01;;;;;;;10.27;6.27;;;23.50;94.50;;;;;;4915548;29;20186;-74
2022/07/31 08:08:27;;;;;;;7.03;6.17;;;23.50;94.20;;;;;;4915278;29;20615;-73
2022/07/31 08:10:53;;;;;;;6.10;5.70;;;23.60;94.50;;;;;;4884014;29;20611;-73
2022/07/31 08:13:19;;;;;;;6.37;5.77;;;23.60;93.50;;;;;;4914420;29;20623;-73
2022/07/31 08:15:44;;;;;;;29.43;26.20;;;23.60;93.50;;;;;;4916092;29;20514;-73
2022/07/31 08:18:10;;;;;;;26.03;23.53;;;23.60;93.70;;;;;;4915725;29;20190;-73
2022/07/31 08:20:37;;;;;;;7.97;7.30;;;23.60;94.40;;;;;;4916484;29;20631;-72
2022/07/31 08:23:02;;;;;;;6.80;6.30;;;23.70;94.20;;;;;;4914806;29;20244;-74
2022/07/31 08:25:28;;;;;;;7.33;6.83;;;23.80;93.80;;;;;;4914909;29;20557;-73
2022/07/31 08:27:54;;;;;;;7.00;6.60;;;23.80;93.70;;;;;;4916135;29;20257;-74
2022/07/31 08:30:19;;;;;;;5.97;5.57;;;23.90;93.50;;;;;;4915266;29;20197;-73
2022/07/31 08:32:45;;;;;;;6.97;6.37;;;23.90;93.40;;;;;;4915217;29;20277;-73
2022/07/31 08:35:11;;;;;;;5.73;5.33;;;23.90;93.40;;;;;;4912060;29;20220;-73
2022/07/31 08:37:39;;;;;;;6.17;5.77;;;23.90;93.00;;;;;;4913354;29;20209;-73
2022/07/31 08:40:05;;;;;;;6.40;5.90;;;23.90;93.00;;;;;;4914879;29;20245;-73
2022/07/31 08:42:31;;;;;;;6.83;6.23;;;23.80;92.90;;;;;;4913608;29;20433;-74
2022/07/31 08:44:57;;;;;;;9.23;6.40;;;23.90;93.40;;;;;;4915431;29;20473;-73
2022/07/31 08:47:26;;;;;;;6.43;5.93;;;23.90;93.60;;;;;;4915357;29;20189;-73
2022/07/31 08:49:52;;;;;;;5.80;5.50;;;23.90;93.50;;;;;;4915792;29;20246;-73
2022/07/31 08:52:23;;;;;;;5.70;5.30;;;23.90;93.50;;;;;;4913443;29;20793;-73
2022/07/31 08:54:50;;;;;;;6.20;5.73;;;23.90;93.20;;;;;;4915168;29;20486;-73
2022/07/31 08:57:16;;;;;;;6.00;5.50;;;23.90;93.40;;;;;;4914162;29;20440;-73
2022/07/31 08:59:42;;;;;;;6.50;6.00;;;23.80;92.80;;;;;;4912000;29;20437;-73
2022/07/31 09:02:09;;;;;;;6.67;6.13;;;23.70;93.30;;;;;;4914125;29;20439;-73
2022/07/31 09:04:35;;;;;;;6.10;5.70;;;23.80;93.20;;;;;;4926419;29;20462;-73
2022/07/31 09:07:01;;;;;;;6.13;5.73;;;23.70;93.20;;;;;;4914535;29;20434;-74
2022/07/31 09:09:28;;;;;;;6.23;5.70;;;23.60;93.70;;;;;;4914786;29;20186;-73
2022/07/31 09:11:54;;;;;;;7.03;6.53;;;23.60;94.20;;;;;;4896719;29;20521;-73
2022/07/31 09:14:29;;;;;;;6.77;6.33;;;23.60;93.70;;;;;;4914367;29;20450;-73
2022/07/31 09:16:56;;;;;;;7.23;6.73;;;23.60;94.10;;;;;;4913584;29;20473;-74
2022/07/31 09:19:39;;;;;;;6.60;6.10;;;23.50;94.10;;;;;;4910755;29;20442;-72
2022/07/31 09:22:05;;;;;;;20.97;18.87;;;23.60;94.70;;;;;;4911588;29;20448;-76
2022/07/31 09:24:33;;;;;;;11.80;10.30;;;23.60;94.30;;;;;;4915386;29;20467;-73
2022/07/31 09:27:05;;;;;;;8.03;7.40;;;23.60;94.50;;;;;;4915657;29;20179;-73
2022/07/31 09:29:39;;;;;;;6.80;6.30;;;23.60;94.80;;;;;;4915592;29;20422;-73
2022/07/31 09:32:16;;;;;;;7.20;6.53;;;23.60;94.60;;;;;;4881629;29;20440;-74
2022/07/31 09:34:43;;;;;;;8.03;7.27;;;23.50;94.10;;;;;;4914733;29;20438;-74
2022/07/31 09:37:16;;;;;;;6.90;6.30;;;23.50;95.10;;;;;;4914863;29;20417;-74
2022/07/31 09:39:53;;;;;;;6.37;5.97;;;23.50;94.70;;;;;;4914731;29;20958;-74
2022/07/31 09:42:20;;;;;;;8.40;7.30;;;23.50;94.40;;;;;;4911806;29;20525;-73
2022/07/31 09:44:47;;;;;;;7.33;6.67;;;23.60;94.50;;;;;;4912893;29;20466;-73
2022/07/31 09:47:27;;;;;;;7.40;7.00;;;23.70;95.20;;;;;;4912590;29;20502;-73
2022/07/31 09:49:58;;;;;;;6.90;6.20;;;23.70;94.60;;;;;;4912549;29;20489;-73
2022/07/31 09:52:26;;;;;;;5.60;5.20;;;23.80;94.80;;;;;;4914140;29;20434;-73
2022/07/31 09:55:06;;;;;;;6.23;5.80;;;23.80;94.00;;;;;;4914897;29;20438;-73
2022/07/31 09:57:34;;;;;;;6.23;5.80;;;23.80;93.80;;;;;;4915183;29;20434;-73
2022/07/31 10:00:00;;;;;;;5.57;5.17;;;23.90;94.10;;;;;;4915008;29;20430;-73
2022/07/31 10:02:28;;;;;;;6.10;5.60;;;23.90;94.50;;;;;;4913637;29;21271;-73
2022/07/31 10:04:55;;;;;;;5.50;5.20;;;23.90;94.10;;;;;;4912223;29;20565;-73
2022/07/31 10:07:25;;;;;;;5.40;5.10;;;24.00;94.40;;;;;;4912246;29;20442;-73
2022/07/31 10:09:54;;;;;;;6.40;5.90;;;23.90;94.40;;;;;;4914566;29;20450;-73
2022/07/31 10:12:21;;;;;;;5.23;4.93;;;24.00;94.00;;;;;;4912326;29;20434;-73
2022/07/31 10:14:51;;;;;;;5.57;5.17;;;24.10;94.10;;;;;;4918169;29;20438;-73
2022/07/31 10:17:24;;;;;;;5.70;5.40;;;24.10;94.10;;;;;;4916741;29;20522;-73
2022/07/31 10:19:54;;;;;;;5.57;5.17;;;24.20;93.90;;;;;;4917170;29;20418;-73
2022/07/31 10:22:21;;;;;;;6.60;6.20;;;24.20;94.10;;;;;;4915645;29;20517;-73
2022/07/31 10:24:49;;;;;;;83.60;64.70;;;24.30;94.20;;;;;;4918200;29;20560;-74
2022/07/31 10:27:15;;;;;;;116.63;104.40;;;24.30;94.00;;;;;;4917013;29;20441;-73
2022/07/31 10:29:42;;;;;;;11.43;10.53;;;24.30;94.10;;;;;;4918673;29;20489;-72
2022/07/31 10:32:08;;;;;;;6.83;6.23;;;24.40;94.00;;;;;;4916519;29;20473;-74
2022/07/31 10:34:34;;;;;;;8.40;7.80;;;24.30;93.60;;;;;;4917955;29;20485;-72
2022/07/31 10:37:17;;;;;;;10.13;9.30;;;24.30;93.60;;;;;;4917759;29;20945;-72
2022/07/31 10:40:02;;;;;;;6.60;6.10;;;24.30;93.90;;;;;;4916310;29;20438;-72
2022/07/31 10:42:44;;;;;;;8.50;7.87;;;24.30;93.40;;;;;;4916180;29;20941;-72
2022/07/31 10:45:12;;;;;;;5.97;5.47;;;24.30;93.60;;;;;;4916161;29;20516;-73
2022/07/31 10:47:39;;;;;;;6.30;5.90;;;24.30;93.60;;;;;;4932782;29;20413;-72
2022/07/31 10:50:05;;;;;;;6.67;6.17;;;24.30;94.20;;;;;;4918237;29;20431;-72
2022/07/31 10:52:36;;;;;;;8.43;7.83;;;24.30;94.00;;;;;;4916632;29;20943;-72
2022/07/31 10:55:12;;;;;;;77.53;69.27;;;24.40;93.70;;;;;;4918769;29;20535;-72
2022/07/31 10:57:38;;;;;;;84.07;70.93;;;24.40;93.90;;;;;;4918046;29;20426;-72
2022/07/31 11:00:16;;;;;;;16.87;15.27;;;24.50;93.20;;;;;;4919045;29;20782;-72
2022/07/31 11:02:43;;;;;;;9.20;8.53;;;24.60;92.60;;;;;;4918422;29;20440;-73
2022/07/31 11:05:13;;;;;;;5.83;5.53;;;24.60;92.60;;;;;;4917417;29;20817;-73
2022/07/31 11:07:40;;;;;;;5.93;5.53;;;24.70;92.00;;;;;;4900444;29;20446;-72
2022/07/31 11:10:10;;;;;;;6.57;5.93;;;24.70;92.30;;;;;;4911793;29;20964;-72
2022/07/31 11:12:36;;;;;;;9.10;8.40;;;24.80;92.40;;;;;;4915315;29;20434;-72
2022/07/31 11:15:03;;;;;;;5.80;5.30;;;24.80;92.40;;;;;;4910412;29;20470;-72
2022/07/31 11:17:32;;;;;;;6.73;6.17;;;24.80;91.70;;;;;;4909134;29;20438;-72
2022/07/31 11:19:58;;;;;;;221.63;178.73;;;24.90;91.90;;;;;;4916530;29;20489;-72
2022/07/31 11:22:25;;;;;;;17.53;15.73;;;24.90;92.00;;;;;;4897281;29;20522;-72
2022/07/31 11:24:54;;;;;;;9.00;8.40;;;24.90;92.50;;;;;;4917048;29;20522;-72
2022/07/31 11:27:33;;;;;;;6.10;5.70;;;24.90;92.50;;;;;;4914859;29;20426;-72
2022/07/31 11:30:07;;;;;;;8.70;7.87;;;24.90;92.70;;;;;;4929864;29;20402;-72
2022/07/31 11:32:33;;;;;;;7.23;6.83;;;24.90;92.30;;;;;;4915976;29;20438;-72
2022/07/31 11:34:58;;;;;;;7.60;7.20;;;24.90;91.80;;;;;;4917704;29;20931;-72
2022/07/31 11:37:27;;;;;;;6.33;6.03;;;25.00;92.00;;;;;;4916788;29;20533;-72
2022/07/31 11:39:54;;;;;;;6.50;6.10;;;25.20;91.80;;;;;;4917616;29;20185;-71
2022/07/31 11:42:21;;;;;;;8.23;7.63;;;25.20;91.90;;;;;;4915331;29;20438;-72
2022/07/31 11:44:47;;;;;;;6.90;6.40;;;25.30;92.10;;;;;;4917102;29;20869;-72
2022/07/31 11:47:13;;;;;;;7.67;7.00;;;25.50;92.40;;;;;;4916711;29;20490;-72
2022/07/31 11:49:39;;;;;;;7.43;6.93;;;25.60;91.70;;;;;;4917539;29;20190;-72
2022/07/31 11:52:07;;;;;;;7.30;6.70;;;25.70;90.70;;;;;;4916632;29;20185;-71
2022/07/31 11:54:34;;;;;;;7.00;6.60;;;25.70;90.70;;;;;;4916571;29;20422;-71
2022/07/31 11:57:00;;;;;;;6.27;5.87;;;25.70;90.80;;;;;;4883792;29;20866;-72
2022/07/31 11:59:29;;;;;;;6.27;5.77;;;25.60;90.80;;;;;;4916459;29;20414;-72
2022/07/31 12:02:03;;;;;;;6.40;6.00;;;25.60;91.40;;;;;;4916081;29;20489;-72
2022/07/31 12:04:31;;;;;;;6.37;5.87;;;25.70;91.80;;;;;;4916364;29;20541;-71
2022/07/31 12:06:57;;;;;;;6.20;5.90;;;25.60;91.10;;;;;;4917001;29;20411;-71
2022/07/31 12:09:23;;;;;;;6.60;6.20;;;25.60;91.30;;;;;;4916279;29;20514;-71
2022/07/31 12:11:50;;;;;;;7.73;7.10;;;25.60;91.10;;;;;;4906235;29;20434;-72
2022/07/31 12:14:30;;;;;;;7.70;7.30;;;25.60;91.10;;;;;;4897246;29;20431;-71
2022/07/31 12:16:56;;;;;;;6.93;6.53;;;25.50;90.90;;;;;;4898049;29;20463;-71
2022/07/31 12:19:36;;;;;;;8.60;7.87;;;25.40;90.70;;;;;;4897494;29;20970;-71
2022/07/31 12:22:19;;;;;;;7.20;6.70;;;25.30;91.30;;;;;;4908034;29;20269;-71
2022/07/31 12:24:46;;;;;;;6.83;6.40;;;25.20;91.30;;;;;;4916957;29;20463;-72
2022/07/31 12:27:17;;;;;;;5.80;5.40;;;25.20;91.90;;;;;;4915388;29;20509;-72
2022/07/31 12:29:43;;;;;;;7.07;6.67;;;25.10;91.60;;;;;;4916783;29;20415;-71
2022/07/31 12:32:09;;;;;;;41.03;35.50;;;24.90;92.00;;;;;;4916617;29;20436;-72
2022/07/31 12:34:40;;;;;;;34.63;30.93;;;24.90;92.30;;;;;;4916507;29;20490;-72
2022/07/31 12:37:15;;;;;;;13.63;12.40;;;24.80;93.00;;;;;;4917150;29;20423;-73
2022/07/31 12:39:53;;;;;;;13.50;12.40;;;24.70;93.90;;;;;;4916482;29;20450;-73
2022/07/31 12:42:24;;;;;;;6.97;6.47;;;24.60;94.30;;;;;;4915052;29;20448;-73
2022/07/31 12:44:54;;;;;;;10.00;9.17;;;24.50;94.20;;;;;;4916685;29;20470;-72
2022/07/31 12:47:25;;;;;;;7.27;6.77;;;24.50;94.50;;;;;;4915937;29;20779;-71
2022/07/31 12:49:51;;;;;;;13.90;12.50;;;24.50;94.60;;;;;;4916555;29;20469;-71